createdAt,value
2024-04-23T00:02:10.454Z,2.70
2024-04-23T00:04:37.289Z,1.90
2024-04-23T00:07:04.115Z,2.40
2024-04-23T00:09:31.165Z,2.70
2024-04-23T00:11:58.203Z,2.42
2024-04-23T00:14:24.870Z,2.38
2024-04-23T00:17:02.192Z,2.15
2024-04-23T00:19:29.171Z,2.42
2024-04-23T00:21:56.131Z,2.20
2024-04-23T00:24:23.005Z,1.90
2024-04-23T00:26:59.659Z,2.28
2024-04-23T00:29:27.921Z,2.22
2024-04-23T00:31:54.936Z,2.45
2024-04-23T00:34:22.504Z,2.85
2024-04-23T00:36:52.248Z,2.20
2024-04-23T00:39:19.093Z,2.78
2024-04-23T00:41:45.917Z,2.28
2024-04-23T00:44:13.112Z,2.42
2024-04-23T00:46:40.310Z,2.30
2024-04-23T00:49:09.886Z,3.03
2024-04-23T00:51:36.879Z,2.30
2024-04-23T00:54:03.934Z,2.47
2024-04-23T00:56:32.267Z,2.55
2024-04-23T00:58:59.695Z,2.53
2024-04-23T01:01:26.542Z,2.63
2024-04-23T01:03:53.339Z,2.58
2024-04-23T01:06:19.947Z,2.50
2024-04-23T01:08:46.619Z,2.60
2024-04-23T01:11:13.547Z,3.10
2024-04-23T01:13:40.381Z,2.45
2024-04-23T01:16:07.370Z,2.30
2024-04-23T01:18:34.416Z,2.08
2024-04-23T01:21:01.875Z,2.40
2024-04-23T01:23:36.653Z,2.40
2024-04-23T01:26:12.093Z,2.47
2024-04-23T01:28:40.027Z,2.83
2024-04-23T01:31:06.929Z,2.75
2024-04-23T01:33:35.976Z,2.47
2024-04-23T01:36:04.320Z,2.75
2024-04-23T01:38:32.426Z,2.90
2024-04-23T01:40:59.245Z,2.95
2024-04-23T01:43:26.459Z,3.35
2024-04-23T01:45:54.131Z,2.92
2024-04-23T01:48:21.306Z,4.28
2024-04-23T01:50:48.032Z,3.65
2024-04-23T01:53:15.096Z,3.22
2024-04-23T01:55:41.887Z,3.33
2024-04-23T01:58:08.589Z,3.80
2024-04-23T02:00:36.921Z,3.55
2024-04-23T02:03:05.191Z,3.15
2024-04-23T02:05:32.105Z,2.85
2024-04-23T02:07:58.992Z,2.90
2024-04-23T02:10:26.882Z,3.13
2024-04-23T02:12:54.277Z,3.47
2024-04-23T02:15:21.068Z,3.13
2024-04-23T02:17:47.873Z,2.90
2024-04-23T02:20:14.622Z,3.60
2024-04-23T02:22:41.709Z,2.92
2024-04-23T02:25:08.420Z,2.50
2024-04-23T02:27:35.198Z,2.65
2024-04-23T02:30:02.230Z,3.10
2024-04-23T02:32:28.960Z,3.20
2024-04-23T02:34:55.958Z,3.40
2024-04-23T02:37:22.574Z,3.15
2024-04-23T02:39:49.172Z,2.88
2024-04-23T02:42:15.895Z,3.17
2024-04-23T02:44:42.711Z,3.90
2024-04-23T02:47:11.729Z,2.97
2024-04-23T02:49:38.341Z,3.55
2024-04-23T02:52:05.263Z,3.50
2024-04-23T02:54:32.021Z,3.97
2024-04-23T02:56:58.821Z,3.58
2024-04-23T02:59:25.552Z,3.60
2024-04-23T03:02:02.237Z,3.22
2024-04-23T03:04:29.920Z,3.28
2024-04-23T03:06:56.688Z,3.13
2024-04-23T03:09:23.452Z,3.28
2024-04-23T03:11:53.292Z,3.97
2024-04-23T03:14:20.094Z,3.10
2024-04-23T03:16:46.932Z,3.25
2024-04-23T03:19:13.855Z,3.47
2024-04-23T03:21:56.723Z,3.75
2024-04-23T03:24:24.330Z,3.80
2024-04-23T03:26:51.230Z,3.75
2024-04-23T03:29:19.414Z,3.17
2024-04-23T03:31:46.609Z,4.10
2024-04-23T03:34:13.481Z,3.58
2024-04-23T03:36:40.300Z,3.97
2024-04-23T03:39:07.400Z,3.75
2024-04-23T03:41:34.109Z,3.65
2024-04-23T03:44:01.334Z,4.07
2024-04-23T03:46:28.139Z,3.75
2024-04-23T03:48:54.842Z,3.92
2024-04-23T03:51:21.926Z,4.10
2024-04-23T03:53:48.629Z,3.70
2024-04-23T03:56:15.191Z,3.97
2024-04-23T03:58:41.964Z,3.47
2024-04-23T04:01:08.732Z,3.50
2024-04-23T04:03:58.772Z,3.80
2024-04-23T04:06:25.945Z,3.53
2024-04-23T04:08:54.471Z,3.90
2024-04-23T04:11:23.025Z,3.90
2024-04-23T04:13:49.811Z,3.60
2024-04-23T04:16:16.750Z,4.40
2024-04-23T04:18:43.623Z,4.40
2024-04-23T04:21:10.312Z,4.18
2024-04-23T04:23:36.881Z,3.80
2024-04-23T04:26:03.789Z,3.83
2024-04-23T04:28:31.451Z,4.00
2024-04-23T04:30:58.438Z,3.65
2024-04-23T04:33:25.105Z,4.30
2024-04-23T04:35:51.827Z,3.95
2024-04-23T04:38:18.462Z,4.25
2024-04-23T04:40:45.185Z,4.10
2024-04-23T04:43:11.990Z,4.10
2024-04-23T04:45:38.737Z,5.00
2024-04-23T04:48:05.666Z,4.43
2024-04-23T04:50:32.486Z,4.80
2024-04-23T04:52:59.167Z,4.25
2024-04-23T04:55:26.321Z,4.10
2024-04-23T04:57:53.071Z,4.65
2024-04-23T05:00:19.816Z,4.95
2024-04-23T05:05:13.127Z,4.28
2024-04-23T05:07:41.998Z,4.55
2024-04-23T05:10:08.978Z,4.65
2024-04-23T05:12:38.860Z,4.22
2024-04-23T05:15:06.473Z,4.85
2024-04-23T05:17:33.175Z,4.85
2024-04-23T05:20:00.805Z,4.63
2024-04-23T05:22:27.563Z,5.22
2024-04-23T05:24:55.595Z,5.18
2024-04-23T05:27:22.237Z,5.40
2024-04-23T05:29:54.957Z,5.05
2024-04-23T05:32:44.131Z,5.10
2024-04-23T05:35:11.183Z,4.85
2024-04-23T05:37:37.952Z,5.57
2024-04-23T05:40:04.997Z,4.70
2024-04-23T05:42:31.663Z,5.70
2024-04-23T05:44:58.357Z,5.22
2024-04-23T05:47:25.098Z,5.50
2024-04-23T05:50:10.901Z,5.50
2024-04-23T05:53:15.173Z,5.63
2024-04-23T05:56:01.255Z,5.32
2024-04-23T05:58:28.358Z,5.65
2024-04-23T06:00:56.111Z,5.20
2024-04-23T06:03:22.963Z,5.97
2024-04-23T06:05:49.674Z,5.63
2024-04-23T06:08:16.520Z,6.20
2024-04-23T06:10:43.516Z,5.70
2024-04-23T06:13:11.481Z,6.47
2024-04-23T06:15:38.157Z,5.63
2024-04-23T06:18:05.036Z,5.97
2024-04-23T06:20:31.883Z,5.95
2024-04-23T06:25:46.060Z,6.07
2024-04-23T06:28:12.815Z,5.75
2024-04-23T06:30:42.315Z,6.28
2024-04-23T06:33:09.329Z,5.70
2024-04-23T06:35:42.048Z,6.13
2024-04-23T06:38:08.820Z,6.00
2024-04-23T06:40:35.432Z,6.38
2024-04-23T06:43:02.164Z,6.30
2024-04-23T06:45:28.851Z,6.53
2024-04-23T06:47:56.024Z,6.28
2024-04-23T06:50:22.967Z,6.25
2024-04-23T06:52:50.167Z,7.05
2024-04-23T06:55:16.915Z,8.90
2024-04-23T06:57:44.646Z,7.03
2024-04-23T07:00:11.684Z,6.53
2024-04-23T07:02:41.617Z,6.45
2024-04-23T07:05:08.750Z,6.40
2024-04-23T07:07:36.100Z,7.22
2024-04-23T07:10:03.100Z,6.93
2024-04-23T07:12:29.927Z,7.20
2024-04-23T07:14:56.938Z,6.53
2024-04-23T07:17:24.606Z,6.82
2024-04-23T07:19:52.455Z,6.75
2024-04-23T07:22:19.806Z,6.78
2024-04-23T07:24:46.752Z,6.85
2024-04-23T07:27:16.788Z,6.43
2024-04-23T07:29:44.500Z,6.53
2024-04-23T07:32:15.046Z,6.88
2024-04-23T07:34:42.305Z,6.38
2024-04-23T07:37:13.518Z,6.60
2024-04-23T07:39:43.261Z,6.45
2024-04-23T07:42:10.340Z,5.63
2024-04-23T07:44:37.395Z,6.88
2024-04-23T07:47:04.485Z,6.90
2024-04-23T07:49:32.104Z,5.93
2024-04-23T07:51:58.897Z,5.50
2024-04-23T07:54:26.218Z,7.82
2024-04-23T07:56:53.263Z,6.78
2024-04-23T07:59:21.810Z,6.28
2024-04-23T08:01:49.953Z,6.40
2024-04-23T08:04:17.118Z,5.53
2024-04-23T08:06:47.028Z,6.63
2024-04-23T08:09:22.238Z,6.57
2024-04-23T08:11:52.428Z,6.93
2024-04-23T08:14:19.828Z,6.43
2024-04-23T08:16:48.636Z,6.88
2024-04-23T08:19:15.699Z,6.30
2024-04-23T08:21:43.585Z,5.95
2024-04-23T08:24:12.549Z,5.78
2024-04-23T08:26:42.480Z,6.07
2024-04-23T08:29:09.310Z,5.63
2024-04-23T08:31:36.500Z,5.72
2024-04-23T08:34:03.261Z,6.10
2024-04-23T08:36:30.117Z,6.13
2024-04-23T08:38:57.009Z,5.15
2024-04-23T08:41:28.025Z,5.57
2024-04-23T08:44:15.077Z,5.38
2024-04-23T08:46:42.454Z,5.30
2024-04-23T08:49:12.241Z,5.50
2024-04-23T08:51:40.131Z,5.40
2024-04-23T08:54:07.390Z,5.10
2024-04-23T08:56:34.516Z,5.88
2024-04-23T08:59:03.398Z,5.72
2024-04-23T09:01:31.842Z,5.47
2024-04-23T09:03:59.319Z,5.65
2024-04-23T09:06:26.780Z,5.32
2024-04-23T09:08:54.333Z,5.38
2024-04-23T09:11:22.658Z,4.82
2024-04-23T09:13:49.854Z,4.32
2024-04-23T09:16:16.718Z,4.43
2024-04-23T09:18:43.439Z,4.75
2024-04-23T09:21:11.239Z,4.63
2024-04-23T09:23:38.130Z,4.43
2024-04-23T09:26:08.006Z,4.75
2024-04-23T09:28:36.437Z,4.57
2024-04-23T09:31:07.669Z,4.45
2024-04-23T09:33:35.037Z,4.90
2024-04-23T09:36:01.750Z,4.57
2024-04-23T09:38:34.058Z,4.10
2024-04-23T09:41:04.487Z,4.32
2024-04-23T09:43:33.242Z,4.40
2024-04-23T09:46:00.377Z,4.28
2024-04-23T09:48:34.595Z,7.53
2024-04-23T09:51:01.768Z,4.47
2024-04-23T09:53:35.142Z,4.70
2024-04-23T09:56:04.612Z,4.78
2024-04-23T09:58:34.920Z,4.55
2024-04-23T10:01:02.968Z,4.32
2024-04-23T10:03:30.736Z,4.88
2024-04-23T10:06:04.624Z,3.80
2024-04-23T10:08:36.245Z,4.45
2024-04-23T10:11:04.338Z,4.80
2024-04-23T10:13:35.491Z,5.00
2024-04-23T10:16:03.132Z,4.60
2024-04-23T10:18:39.565Z,4.70
2024-04-23T10:21:14.316Z,4.78
2024-04-23T10:23:41.670Z,4.85
2024-04-23T10:26:08.543Z,4.85
2024-04-23T10:28:35.536Z,4.88
2024-04-23T10:31:02.495Z,5.25
2024-04-23T10:33:32.919Z,5.18
2024-04-23T10:36:03.063Z,4.47
2024-04-23T10:38:32.836Z,4.90
2024-04-23T10:40:59.904Z,4.22
2024-04-23T10:43:27.750Z,4.75
2024-04-23T10:45:54.522Z,3.90
2024-04-23T10:48:28.293Z,3.97
2024-04-23T10:50:57.037Z,5.22
2024-04-23T10:53:23.793Z,4.18
2024-04-23T11:01:04.696Z,4.00
2024-04-23T11:03:35.986Z,3.58
2024-04-23T11:06:05.394Z,4.35
2024-04-23T11:08:37.969Z,3.50
2024-04-23T11:11:08.558Z,3.25
2024-04-23T11:13:42.490Z,3.85
2024-04-23T11:16:16.522Z,3.58
2024-04-23T11:18:44.563Z,5.15
2024-04-23T11:21:16.919Z,4.30
2024-04-23T11:23:44.024Z,4.20
2024-04-23T11:26:13.453Z,4.28
2024-04-23T11:28:40.504Z,4.20
2024-04-23T11:31:11.044Z,4.05
2024-04-23T11:33:42.133Z,4.13
2024-04-23T11:36:12.835Z,4.10
2024-04-23T11:38:43.825Z,4.68
2024-04-23T11:41:22.175Z,4.25
2024-04-23T11:43:49.649Z,4.00
2024-04-23T11:46:24.874Z,4.50
2024-04-23T11:48:52.695Z,4.30
2024-04-23T11:51:20.271Z,3.90
2024-04-23T11:53:47.070Z,4.28
2024-04-23T11:56:13.958Z,4.30
2024-04-23T11:58:43.551Z,4.40
2024-04-23T12:01:10.580Z,4.00
2024-04-23T12:03:39.100Z,4.18
2024-04-23T12:06:07.336Z,4.60
2024-04-23T12:08:35.781Z,3.67
2024-04-23T12:11:03.558Z,4.05
2024-04-23T12:13:30.323Z,4.07
2024-04-23T12:15:57.108Z,4.28
2024-04-23T12:18:24.220Z,3.70
2024-04-23T12:20:51.210Z,5.03
2024-04-23T12:23:19.855Z,4.03
2024-04-23T12:25:49.434Z,4.10
2024-04-23T12:28:16.210Z,3.50
2024-04-23T12:30:43.530Z,4.22
2024-04-23T12:33:14.838Z,3.83
2024-04-23T12:35:42.027Z,3.90
2024-04-23T12:38:12.910Z,3.95
2024-04-23T12:40:40.485Z,4.57
2024-04-23T12:43:13.397Z,4.63
2024-04-23T12:45:40.645Z,4.30
2024-04-23T12:48:08.924Z,4.20
2024-04-23T12:50:35.791Z,3.80
2024-04-23T12:53:02.951Z,4.47
2024-04-23T12:55:31.696Z,3.88
2024-04-23T12:57:58.841Z,4.80
2024-04-23T13:00:26.024Z,3.65
2024-04-23T13:02:53.010Z,3.92
2024-04-23T13:05:20.187Z,3.78
2024-04-23T13:07:47.094Z,3.83
2024-04-23T13:10:16.683Z,4.40
2024-04-23T13:12:43.551Z,4.55
2024-04-23T13:15:11.864Z,4.40
2024-04-23T13:17:39.045Z,3.63
2024-04-23T13:20:06.045Z,3.60
2024-04-23T13:22:32.775Z,4.15
2024-04-23T13:24:59.759Z,4.25
2024-04-23T13:27:26.727Z,4.30
2024-04-23T13:29:53.397Z,4.32
2024-04-23T13:32:20.302Z,4.65
2024-04-23T13:34:47.273Z,4.25
2024-04-23T13:37:14.725Z,4.38
2024-04-23T13:39:45.084Z,6.40
2024-04-23T13:42:12.327Z,3.97
2024-04-23T13:44:39.033Z,4.13
2024-04-23T13:47:06.101Z,3.72
2024-04-23T13:49:36.761Z,3.95
2024-04-23T13:52:05.319Z,3.92
2024-04-23T13:54:32.030Z,4.50
2024-04-23T13:56:59.192Z,4.40
2024-04-23T14:00:09.422Z,4.00
2024-04-23T14:02:36.146Z,4.00
2024-04-23T14:05:02.875Z,3.13
2024-04-23T14:07:31.946Z,4.43
2024-04-23T14:09:59.095Z,4.40
2024-04-23T14:12:28.714Z,4.78
2024-04-23T14:14:55.372Z,4.45
2024-04-23T14:17:22.061Z,4.10
2024-04-23T14:19:50.001Z,3.75
2024-04-23T14:22:20.823Z,4.07
2024-04-23T14:24:49.894Z,4.32
2024-04-23T14:27:19.673Z,4.30
2024-04-23T14:29:46.218Z,3.97
2024-04-23T14:32:14.462Z,4.72
2024-04-23T14:34:42.565Z,5.15
2024-04-23T14:37:09.704Z,4.35
2024-04-23T14:39:36.979Z,3.90
2024-04-23T14:42:04.194Z,4.32
2024-04-23T14:44:30.983Z,3.92
2024-04-23T14:46:58.156Z,4.60
2024-04-23T14:49:28.400Z,4.40
2024-04-23T14:51:56.062Z,3.75
2024-04-23T14:54:22.879Z,4.10
2024-04-23T14:56:52.879Z,4.00
2024-04-23T14:59:19.704Z,3.47
2024-04-23T15:01:50.310Z,2.80
2024-04-23T15:04:19.802Z,3.15
2024-04-23T15:06:46.710Z,2.83
2024-04-23T15:09:13.332Z,2.95
2024-04-23T15:11:40.306Z,2.45
2024-04-23T15:14:07.069Z,2.90
2024-04-23T15:16:33.839Z,2.50
2024-04-23T15:19:02.354Z,6.57
2024-04-23T15:21:30.579Z,3.00
2024-04-23T15:23:57.390Z,2.50
2024-04-23T15:26:24.217Z,2.22
2024-04-23T15:28:53.278Z,3.45
2024-04-23T15:31:19.974Z,2.80
2024-04-23T15:33:46.957Z,2.30
2024-04-23T15:36:20.172Z,2.53
2024-04-23T15:38:56.522Z,2.22
2024-04-23T15:41:23.109Z,2.70
2024-04-23T15:43:50.040Z,2.20
2024-04-23T15:46:17.057Z,2.70
2024-04-23T15:48:44.669Z,2.50
2024-04-23T15:51:14.871Z,2.15
2024-04-23T15:53:41.909Z,2.40
2024-04-23T15:56:11.914Z,2.50
2024-04-23T15:58:42.197Z,2.50
2024-04-23T16:01:12.297Z,2.40
2024-04-23T16:03:43.034Z,3.28
2024-04-23T16:06:16.696Z,3.08
2024-04-23T16:11:11.256Z,2.83
2024-04-23T16:13:42.138Z,2.55
2024-04-23T16:16:09.094Z,2.80
2024-04-23T16:18:39.049Z,2.45
2024-04-23T16:21:12.298Z,2.38
2024-04-23T16:23:40.796Z,2.75
2024-04-23T16:26:14.380Z,2.40
2024-04-23T16:28:41.709Z,2.90
2024-04-23T16:31:11.609Z,2.45
2024-04-23T16:33:39.698Z,3.00
2024-04-23T16:36:12.184Z,2.70
2024-04-23T16:38:42.926Z,2.50
2024-04-23T16:41:12.745Z,2.92
2024-04-23T16:43:44.968Z,3.55
2024-04-23T16:46:13.447Z,4.13
2024-04-23T16:48:43.753Z,3.78
2024-04-23T16:51:15.936Z,3.65
2024-04-23T16:53:42.684Z,3.47
2024-04-23T16:56:14.247Z,3.85
2024-04-23T16:58:44.191Z,4.20
2024-04-23T17:10:58.493Z,3.03
2024-04-23T17:13:34.176Z,1.88
2024-04-23T17:17:41.877Z,2.20
2024-04-23T17:20:01.182Z,2.30
2024-04-23T17:22:28.381Z,2.97
2024-04-23T17:24:55.360Z,3.20
2024-04-23T17:27:22.367Z,2.50
2024-04-23T17:29:52.151Z,2.70
2024-04-23T17:32:22.174Z,4.03
2024-04-23T17:41:08.541Z,3.92
2024-04-23T17:43:40.519Z,3.95
2024-04-23T17:46:08.493Z,3.47
2024-04-23T17:48:35.628Z,4.70
2024-04-23T17:51:08.979Z,4.07
2024-04-23T17:53:36.118Z,3.70
2024-04-23T17:56:03.614Z,3.45
2024-04-23T17:58:33.847Z,4.05
2024-04-23T18:01:06.134Z,3.90
2024-04-23T18:03:47.734Z,3.90
2024-04-23T18:06:17.877Z,3.50
2024-04-23T18:08:46.410Z,3.30
2024-04-23T18:11:18.880Z,2.80
2024-04-23T18:13:47.908Z,3.08
2024-04-23T18:16:18.649Z,2.50
2024-04-23T18:18:48.535Z,2.92
2024-04-23T18:21:17.830Z,3.67
2024-04-23T18:23:46.016Z,2.78
2024-04-23T18:26:14.984Z,3.33
2024-04-23T18:28:41.986Z,3.35
2024-04-23T18:31:14.874Z,3.20
2024-04-23T18:33:50.314Z,3.80
2024-04-23T18:36:24.598Z,3.55
2024-04-23T18:38:59.573Z,3.28
2024-04-23T18:41:30.542Z,3.70
2024-04-23T18:43:57.643Z,3.50
2024-04-23T18:46:24.621Z,4.18
2024-04-23T18:48:54.724Z,3.30
2024-04-23T18:51:26.928Z,3.47
2024-04-23T18:54:00.654Z,3.80
2024-04-23T18:56:28.541Z,3.92
2024-04-23T18:58:57.787Z,4.38
2024-04-23T19:01:26.652Z,4.70
2024-04-23T19:03:54.846Z,4.35
2024-04-23T19:06:23.756Z,4.53
2024-04-23T19:08:52.884Z,4.60
2024-04-23T19:11:27.230Z,4.28
2024-04-23T19:14:03.876Z,3.78
2024-04-23T19:16:44.951Z,4.10
2024-04-23T19:19:13.778Z,4.13
2024-04-23T19:21:44.830Z,4.15
2024-04-23T19:25:48.937Z,4.60
2024-04-23T19:31:25.560Z,4.65
2024-04-23T19:34:15.414Z,4.97
2024-04-23T19:36:55.578Z,4.82
2024-04-23T19:39:25.209Z,4.85
2024-04-23T19:42:14.931Z,4.50
2024-04-23T19:44:43.168Z,4.13
2024-04-23T19:47:10.370Z,4.65
2024-04-23T19:49:37.637Z,5.20
2024-04-23T19:52:10.866Z,5.20
2024-04-23T19:54:43.887Z,4.82
2024-04-23T19:57:15.895Z,4.70
2024-04-23T19:59:48.846Z,4.05
2024-04-23T20:05:00.342Z,4.38
2024-04-23T20:07:32.550Z,4.95
2024-04-23T20:10:00.936Z,3.88
2024-04-23T20:12:30.418Z,4.32
2024-04-23T20:15:15.880Z,4.07
2024-04-23T20:17:43.063Z,3.50
2024-04-23T20:20:12.503Z,3.35
2024-04-23T20:22:39.368Z,3.88
2024-04-23T20:25:06.628Z,3.60
2024-04-23T20:27:33.466Z,3.60
2024-04-23T20:30:00.116Z,3.88
2024-04-23T20:32:27.033Z,3.53
2024-04-23T20:34:53.707Z,3.20
2024-04-23T20:37:20.572Z,3.70
2024-04-23T20:39:47.316Z,2.45
2024-04-23T20:42:14.081Z,3.10
2024-04-23T20:44:42.569Z,2.25
2024-04-23T20:47:11.721Z,2.42
2024-04-23T20:49:45.934Z,1.98
2024-04-23T20:52:12.762Z,2.70
2024-04-23T20:54:40.217Z,2.03
2024-04-23T20:57:07.261Z,1.92
2024-04-23T20:59:34.115Z,2.28
2024-04-23T21:02:21.107Z,1.67
2024-04-23T21:04:50.368Z,1.95
2024-04-23T21:07:17.459Z,2.38
2024-04-23T21:09:52.491Z,1.88
2024-04-23T21:12:21.523Z,2.78
2024-04-23T21:14:50.690Z,2.65
2024-04-23T21:17:18.702Z,2.17
2024-04-23T21:19:50.836Z,2.00
2024-04-23T21:22:17.711Z,2.13
2024-04-23T21:24:46.853Z,2.35
2024-04-23T21:27:13.497Z,2.10
2024-04-23T21:29:41.418Z,2.65
2024-04-23T21:32:08.281Z,1.83
2024-04-23T21:34:35.081Z,2.80
2024-04-23T21:37:01.841Z,2.03
2024-04-23T21:39:28.571Z,2.10
2024-04-23T21:41:57.848Z,2.00
2024-04-23T21:44:25.056Z,1.83
2024-04-23T21:46:51.915Z,2.03
2024-04-23T21:49:18.654Z,2.67
2024-04-23T21:52:09.255Z,2.00
2024-04-23T21:54:32.411Z,2.40
2024-04-23T21:56:59.046Z,2.17
2024-04-23T21:59:27.977Z,1.95
2024-04-23T22:01:55.008Z,1.77
2024-04-23T22:04:21.685Z,1.55
2024-04-23T22:06:48.381Z,1.48
2024-04-23T22:09:15.002Z,1.80
2024-04-23T22:11:41.928Z,2.03
2024-04-23T22:14:08.928Z,1.40
2024-04-23T22:16:35.674Z,1.70
2024-04-23T22:19:02.374Z,1.65
2024-04-23T22:21:29.039Z,1.77
2024-04-23T22:23:55.889Z,2.00
2024-04-23T22:26:22.671Z,1.92
2024-04-23T22:28:49.627Z,2.00
2024-04-23T22:31:16.207Z,1.88
2024-04-23T22:33:42.956Z,2.70
2024-04-23T22:36:09.891Z,2.05
2024-04-23T22:38:36.579Z,1.50
2024-04-23T22:41:03.364Z,1.70
2024-04-23T22:43:30.105Z,2.90
2024-04-23T22:45:56.668Z,1.83
2024-04-23T22:48:24.571Z,1.30
2024-04-23T22:50:51.417Z,1.90
2024-04-23T22:53:18.417Z,2.20
2024-04-23T22:55:45.429Z,1.70
2024-04-23T22:58:12.091Z,2.17
2024-04-23T23:00:38.879Z,1.83
2024-04-23T23:03:05.767Z,2.22
2024-04-23T23:05:32.429Z,1.50
2024-04-23T23:07:59.125Z,1.90
2024-04-23T23:10:25.795Z,1.75
2024-04-23T23:12:52.705Z,2.10
2024-04-23T23:15:20.000Z,1.67
2024-04-23T23:17:46.682Z,1.70
2024-04-23T23:20:13.354Z,1.50
2024-04-23T23:22:40.192Z,1.88
2024-04-23T23:25:07.096Z,1.30
2024-04-23T23:27:33.836Z,1.75
2024-04-23T23:30:00.486Z,2.05
2024-04-23T23:32:27.279Z,2.05
2024-04-23T23:34:54.020Z,1.67
2024-04-23T23:37:20.630Z,1.77
2024-04-23T23:39:47.241Z,1.70
2024-04-23T23:42:14.018Z,1.80
2024-04-23T23:44:43.045Z,1.30
2024-04-23T23:47:10.127Z,1.40
2024-04-23T23:49:36.880Z,1.38
2024-04-23T23:52:03.735Z,1.63
2024-04-23T23:54:30.392Z,1.48
2024-04-23T23:56:58.722Z,1.70
2024-04-23T23:59:25.617Z,1.60
